Time;durP1;ratioP1;P1;durP2;ratioP2;P2;SDS_P1;SDS_P2;PMS_P1;PMS_P2;Temp;Humidity;BMP_temperature;BMP_pressure;BME280_temperature;BME280_humidity;BME280_pressure;Samples;Min_cycle;Max_cycle;Signal;HPM_P1;HPM_P2
2024/04/10 00:02:55;;;;;;;2.60;2.40;;;;;;;14.75;45.17;99341.72;9089936;21;20264;-83
2024/04/10 00:06:19;;;;;;;7.27;2.57;;;;;;;14.72;45.55;99347.56;9085321;21;20221;-83
2024/04/10 00:09:42;;;;;;;2.03;1.83;;;;;;;14.58;46.12;99365.78;9083932;21;20279;-83
2024/04/10 00:13:06;;;;;;;2.30;1.80;;;;;;;14.80;44.55;99325.59;9084363;21;20221;-83
2024/04/10 00:16:29;;;;;;;3.13;1.77;;;;;;;14.55;45.72;99385.25;9084686;21;20226;-84
2024/04/10 00:19:50;;;;;;;2.60;1.90;;;;;;;14.89;44.86;99375.84;9084053;21;20351;-83
2024/04/10 00:23:13;;;;;;;4.40;2.00;;;;;;;14.81;44.80;99373.41;9084773;21;20656;-83
2024/04/10 00:26:34;;;;;;;2.63;2.20;;;;;;;14.56;45.88;99402.34;9082833;21;20226;-86
2024/04/10 00:30:00;;;;;;;5.73;2.50;;;;;;;14.81;45.42;99393.22;9076321;21;20279;-85
2024/04/10 00:33:23;;;;;;;3.97;2.10;;;;;;;14.82;45.23;99389.47;9077162;21;20263;-86
2024/04/10 00:36:46;;;;;;;3.13;2.07;;;;;;;14.69;45.69;99416.69;9076930;21;20222;-85
2024/04/10 00:40:08;;;;;;;2.77;2.10;;;;;;;14.45;45.54;99393.00;9076936;21;20600;-86
2024/04/10 00:43:31;;;;;;;3.43;2.27;;;;;;;14.25;46.14;99392.25;9076818;21;20264;-86
2024/04/10 00:46:54;;;;;;;3.43;2.00;;;;;;;14.68;45.77;99409.59;9076372;21;20223;-85
2024/04/10 00:50:18;;;;;;;2.97;1.97;;;;;;;14.67;45.92;99415.22;9076682;21;20272;-86
2024/04/10 00:53:40;;;;;;;2.63;1.90;;;;;;;14.81;45.25;99422.28;9076666;21;20226;-86
2024/04/10 00:57:03;;;;;;;2.27;2.07;;;;;;;14.34;46.96;99423.50;9075775;21;20264;-86
2024/04/10 01:00:26;;;;;;;2.40;1.67;;;;;;;14.70;45.80;99431.09;9074787;21;20241;-86
2024/04/10 01:03:52;;;;;;;3.63;2.20;;;;;;;14.80;45.95;99410.56;9076671;21;20268;-87
2024/04/10 01:07:13;;;;;;;5.10;2.10;;;;;;;14.37;47.19;99409.53;9075717;21;20222;-86
2024/04/10 01:10:36;;;;;;;1.90;1.80;;;;;;;14.58;46.60;99432.81;9076331;21;20225;-86
2024/04/10 01:13:56;;;;;;;1.97;1.87;;;;;;;14.66;46.48;99429.84;9076643;21;20217;-86
2024/04/10 01:17:20;;;;;;;2.03;1.83;;;;;;;14.47;47.06;99438.91;9075881;21;20220;-85
2024/04/10 01:20:43;;;;;;;3.53;2.10;;;;;;;14.05;48.30;99439.44;9076243;21;20237;-86
2024/04/10 01:24:09;;;;;;;2.07;1.70;;;;;;;14.31;47.44;99436.66;9076393;21;20225;-86
2024/04/10 01:27:30;;;;;;;5.50;2.13;;;;;;;14.29;47.57;99445.00;9075331;21;20292;-86
2024/04/10 01:30:53;;;;;;;3.80;1.80;;;;;;;14.19;47.59;99443.78;9076449;21;20245;-85
2024/04/10 01:34:14;;;;;;;2.30;1.90;;;;;;;13.77;48.85;99449.69;9076265;21;20222;-86
2024/04/10 01:37:52;;;;;;;3.27;2.40;;;;;;;13.63;49.16;99461.56;9075579;21;20254;-86
2024/04/10 01:41:15;;;;;;;2.80;1.77;;;;;;;13.97;48.40;99462.16;8722295;22;20289;-86
2024/04/10 01:44:38;;;;;;;2.83;1.97;;;;;;;13.92;48.98;99466.56;8722418;22;20230;-86
2024/04/10 01:47:59;;;;;;;4.10;1.70;;;;;;;13.85;48.88;99454.88;8721498;22;20227;-86
2024/04/10 01:51:22;;;;;;;4.30;2.27;;;;;;;14.07;48.16;99456.31;8722201;22;20276;-86
2024/04/10 01:54:46;;;;;;;3.03;2.10;;;;;;;14.23;47.65;99483.84;8722362;22;20231;-85
2024/04/10 01:58:12;;;;;;;5.00;1.87;;;;;;;14.27;47.72;99481.56;8720980;22;20260;-86
2024/04/10 02:01:34;;;;;;;4.47;1.87;;;;;;;13.98;48.70;99479.28;8721746;22;20275;-86
2024/04/10 02:04:58;;;;;;;2.47;1.80;;;;;;;13.79;49.01;99469.25;8721986;22;20702;-86
2024/04/10 02:08:21;;;;;;;2.20;1.87;;;;;;;14.02;48.65;99494.91;8721181;22;20231;-86
2024/04/10 02:11:44;;;;;;;2.53;2.00;;;;;;;13.92;48.71;99477.41;8722203;22;20238;-86
2024/04/10 02:15:08;;;;;;;5.00;2.10;;;;;;;13.84;48.84;99500.13;8721941;22;20218;-86
2024/04/10 02:18:31;;;;;;;3.77;1.87;;;;;;;13.48;50.16;99488.03;8957275;21;20216;-86
2024/04/10 02:21:52;;;;;;;2.40;2.07;;;;;;;13.74;49.31;99485.34;9076641;21;20268;-86
2024/04/10 02:25:16;;;;;;;2.27;2.07;;;;;;;13.71;49.12;99492.00;9075560;21;20225;-86
2024/04/10 02:28:36;;;;;;;3.87;2.17;;;;;;;13.97;48.64;99491.16;9074811;21;20539;-86
2024/04/10 02:32:03;;;;;;;2.60;1.83;;;;;;;13.94;48.65;99503.28;9075723;21;20669;-86
2024/04/10 02:35:26;;;;;;;2.93;2.27;;;;;;;13.81;48.87;99491.59;9076053;21;20679;-86
2024/04/10 02:38:48;;;;;;;3.43;1.90;;;;;;;13.86;49.34;99506.19;9074949;21;20279;-86
2024/04/10 02:42:11;;;;;;;4.50;2.30;;;;;;;13.75;49.49;99514.94;9075416;21;20258;-86
2024/04/10 02:45:32;;;;;;;2.03;1.90;;;;;;;13.79;48.64;99516.19;9075301;21;20270;-87
2024/04/10 02:48:57;;;;;;;3.27;1.90;;;;;;;13.61;50.10;99517.84;9074820;21;20717;-86
2024/04/10 02:52:21;;;;;;;2.73;2.10;;;;;;;13.16;50.70;99522.13;9076054;21;20220;-87
2024/04/10 02:55:41;;;;;;;4.03;2.10;;;;;;;13.40;50.58;99523.44;9075220;21;20217;-87
2024/04/10 02:59:04;;;;;;;2.90;2.10;;;;;;;13.21;50.68;99513.41;9074792;21;20322;-84
2024/04/10 03:02:27;;;;;;;7.17;2.00;;;;;;;12.97;51.91;99530.19;9075705;21;20228;-84
2024/04/10 03:05:59;;;;;;;4.13;2.30;;;;;;;13.37;50.65;99530.09;9076268;21;20271;-84
2024/04/10 03:09:23;;;;;;;5.07;2.50;;;;;;;13.46;50.66;99537.00;9079910;21;20231;-84
2024/04/10 03:12:46;;;;;;;2.20;2.00;;;;;;;13.57;50.24;99516.59;9080918;21;20660;-82
2024/04/10 03:16:10;;;;;;;2.43;2.10;;;;;;;13.64;49.96;99537.22;9081240;21;20270;-83
2024/04/10 03:19:33;;;;;;;4.13;2.13;;;;;;;13.54;49.72;99535.97;9083738;21;20240;-83
2024/04/10 03:22:59;;;;;;;4.03;2.07;;;;;;;13.51;49.91;99553.47;9085066;21;20228;-82
2024/04/10 03:26:22;;;;;;;2.50;2.10;;;;;;;13.34;49.83;99554.06;9089780;21;20264;-84
2024/04/10 03:29:43;;;;;;;2.80;2.40;;;;;;;13.19;50.56;99540.69;9087689;21;20234;-83
2024/04/10 03:33:07;;;;;;;2.50;2.10;;;;;;;12.92;50.87;99540.78;9088868;21;20228;-83
2024/04/10 03:36:30;;;;;;;7.93;2.53;;;;;;;12.85;51.30;99553.41;9086650;21;20218;-85
2024/04/10 03:39:53;;;;;;;4.70;2.40;;;;;;;12.88;50.80;99562.00;9083976;21;20234;-84
2024/04/10 03:43:16;;;;;;;2.93;2.30;;;;;;;13.01;50.75;99569.34;9085057;21;20219;-84
2024/04/10 03:46:39;;;;;;;3.20;2.40;;;;;;;12.60;51.50;99561.22;9084422;21;20329;-84
2024/04/10 03:50:03;;;;;;;3.60;2.20;;;;;;;12.59;51.08;99574.94;9085794;21;20289;-83
2024/04/10 03:53:26;;;;;;;2.80;2.50;;;;;;;12.42;51.37;99577.13;9086198;21;20224;-83
2024/04/10 03:56:50;;;;;;;5.53;2.70;;;;;;;12.87;50.35;99587.38;9086861;21;20258;-83
2024/04/10 04:00:13;;;;;;;6.57;2.30;;;;;;;12.68;50.77;99569.16;9085661;21;20705;-83
2024/04/10 04:03:35;;;;;;;4.47;2.10;;;;;;;13.12;49.76;99588.56;9083582;21;20232;-83
2024/04/10 04:06:58;;;;;;;4.73;2.47;;;;;;;13.06;50.42;99581.25;9081880;21;20734;-83
2024/04/10 04:10:19;;;;;;;3.27;2.10;;;;;;;13.01;49.62;99601.84;9083701;21;20230;-84
2024/04/10 04:13:45;;;;;;;3.43;2.27;;;;;;;13.07;49.77;99612.72;9082233;21;20265;-83
2024/04/10 04:17:06;;;;;;;3.70;2.30;;;;;;;12.85;49.81;99613.81;9086016;21;20743;-84
2024/04/10 04:20:29;;;;;;;3.37;2.23;;;;;;;12.52;50.11;99601.94;9085324;21;20240;-83
2024/04/10 04:23:53;;;;;;;5.40;2.20;;;;;;;12.86;50.03;99634.41;9083804;21;20270;-84
2024/04/10 04:27:16;;;;;;;6.53;2.60;;;;;;;12.67;50.12;99626.16;9078283;21;20739;-84
2024/04/10 04:30:48;;;;;;;5.83;2.43;;;;;;;13.32;49.19;99632.81;9079611;21;20239;-84
2024/04/10 04:34:16;;;;;;;3.67;2.13;;;;;;;13.02;49.53;99647.66;9080197;21;20245;-84
2024/04/10 04:37:39;;;;;;;4.77;2.40;;;;;;;13.13;49.45;99640.84;9078623;21;20231;-84
2024/04/10 04:41:02;;;;;;;4.67;2.30;;;;;;;13.08;49.20;99641.44;9079465;21;20290;-85
2024/04/10 04:44:25;;;;;;;4.77;2.73;;;;;;;13.31;48.80;99644.69;9078414;21;20227;-83
2024/04/10 04:47:48;;;;;;;3.37;2.10;;;;;;;12.81;49.98;99639.59;9070819;21;20220;-84
2024/04/10 04:51:11;;;;;;;3.90;2.30;;;;;;;13.06;49.56;99656.22;9081209;21;20308;-83
2024/04/10 04:54:35;;;;;;;3.90;2.13;;;;;;;13.27;49.32;99646.13;9082611;21;20286;-83
2024/04/10 04:57:58;;;;;;;4.77;2.03;;;;;;;13.43;49.19;99645.78;9080234;21;20979;-82
2024/04/10 05:01:21;;;;;;;5.40;2.60;;;;;;;13.47;48.95;99668.72;9077447;21;20271;-83
2024/04/10 05:04:57;;;;;;;8.00;2.90;;;;;;;13.21;49.34;99673.19;9081591;21;20220;-83
2024/04/10 05:08:20;;;;;;;6.90;2.67;;;;;;;12.72;51.28;99673.28;9081242;21;20329;-83
2024/04/10 05:11:44;;;;;;;4.93;2.60;;;;;;;12.02;52.79;99671.63;9079847;21;20230;-83
2024/04/10 05:15:08;;;;;;;4.63;2.20;;;;;;;12.72;51.63;99694.06;9079382;21;20254;-83
2024/04/10 05:18:31;;;;;;;5.20;2.63;;;;;;;12.75;51.85;99685.56;9079278;21;20533;-83
2024/04/10 05:21:54;;;;;;;6.10;2.60;;;;;;;12.23;53.32;99695.94;9079712;21;20225;-83
2024/04/10 05:25:17;;;;;;;5.50;2.80;;;;;;;12.04;53.40;99697.44;9078838;21;20268;-83
2024/04/10 05:28:44;;;;;;;4.33;2.43;;;;;;;12.39;53.27;99679.47;9077031;21;20289;-83
2024/04/10 05:32:09;;;;;;;3.87;2.10;;;;;;;12.46;53.26;99707.41;9079320;21;20719;-83
2024/04/10 05:35:32;;;;;;;5.03;2.40;;;;;;;13.16;51.83;99691.91;9076405;21;20225;-84
2024/04/10 05:39:02;;;;;;;5.30;2.80;;;;;;;13.30;51.58;99697.19;9077852;21;20282;-83
2024/04/10 05:42:25;;;;;;;10.37;2.40;;;;;;;13.73;50.54;99706.75;9090824;21;20263;-83
2024/04/10 05:45:48;;;;;;;5.70;2.40;;;;;;;14.38;48.24;99700.63;9086602;21;20592;-83
2024/04/10 05:49:12;;;;;;;6.43;2.23;;;;;;;14.43;48.95;99718.00;9085202;21;20347;-82
2024/04/10 05:52:35;;;;;;;2.33;2.13;;;;;;;15.24;47.11;99713.94;9083639;21;20225;-83
2024/04/10 05:56:01;;;;;;;8.10;2.60;;;;;;;15.30;47.35;99716.66;9082215;21;20229;-83
2024/04/10 05:59:26;;;;;;;5.47;2.30;;;;;;;15.56;46.43;99732.06;9082322;21;20243;-83
2024/04/10 06:02:49;;;;;;;4.20;2.30;;;;;;;15.49;46.63;99733.97;9078578;21;20266;-86
2024/04/10 06:06:12;;;;;;;2.93;2.10;;;;;;;14.95;47.96;99752.44;9074054;21;20293;-86
2024/04/10 06:09:35;;;;;;;5.43;2.30;;;;;;;14.52;47.14;99749.28;9074080;21;20751;-86
2024/04/10 06:13:01;;;;;;;3.90;1.97;;;;;;;14.53;47.78;99755.56;9075150;21;20229;-85
2024/04/10 06:16:22;;;;;;;7.10;2.60;;;;;;;14.94;46.57;99743.47;9075879;21;20535;-82
2024/04/10 06:19:45;;;;;;;5.90;2.10;;;;;;;15.01;45.89;99765.19;9075185;21;20738;-86
2024/04/10 06:23:08;;;;;;;6.40;2.33;;;;;;;14.72;46.18;99754.72;9076320;21;20715;-85
2024/04/10 06:26:29;;;;;;;5.50;2.33;;;;;;;14.87;45.29;99761.63;9075125;21;20214;-84
2024/04/10 06:29:54;;;;;;;6.40;2.40;;;;;;;14.46;45.53;99790.00;9074480;21;20228;-83
2024/04/10 06:33:18;;;;;;;6.60;2.43;;;;;;;14.95;44.88;99776.88;9076027;21;20274;-84
2024/04/10 06:36:41;;;;;;;6.70;2.37;;;;;;;14.63;45.06;99785.84;9076248;21;20224;-84
2024/04/10 06:40:05;;;;;;;5.30;2.23;;;;;;;15.04;44.68;99783.78;9077239;21;20254;-84
2024/04/10 06:43:28;;;;;;;5.63;3.57;;;;;;;14.74;45.14;99774.38;9079460;21;20225;-84
2024/04/10 06:46:52;;;;;;;9.73;2.20;;;;;;;15.09;44.39;99789.41;9079748;21;20234;-84
2024/04/10 06:50:15;;;;;;;8.47;2.43;;;;;;;15.15;43.88;99783.97;9076981;21;20226;-84
2024/04/10 06:53:38;;;;;;;12.53;3.03;;;;;;;14.84;44.06;99808.22;9078337;21;20222;-84
2024/04/10 06:57:01;;;;;;;5.57;2.43;;;;;;;14.31;45.25;99813.75;9077298;21;20225;-85
2024/04/10 07:00:24;;;;;;;12.73;2.67;;;;;;;14.67;44.24;99796.09;9078003;21;20282;-84
2024/04/10 07:03:50;;;;;;;5.37;2.00;;;;;;;14.94;43.85;99824.09;9076323;21;20278;-86
2024/04/10 07:07:13;;;;;;;11.60;2.93;;;;;;;15.03;43.93;99804.66;9076835;21;20258;-84
2024/04/10 07:10:37;;;;;;;6.20;2.37;;;;;;;15.18;43.79;99809.88;9077732;21;20233;-85
2024/04/10 07:14:01;;;;;;;6.20;2.40;;;;;;;15.02;44.57;99819.28;9077479;21;20626;-85
2024/04/10 07:17:24;;;;;;;4.67;2.10;;;;;;;15.18;43.67;99815.31;9075751;21;20234;-85
2024/04/10 07:20:59;;;;;;;14.63;3.73;;;;;;;15.31;43.48;99827.00;9077691;21;20275;-85
2024/04/10 07:24:23;;;;;;;9.53;3.10;;;;;;;15.19;44.08;99787.94;9077860;21;20220;-85
2024/04/10 07:27:44;;;;;;;11.00;2.93;;;;;;;15.46;42.56;99815.94;9077723;21;20264;-86
2024/04/10 07:31:08;;;;;;;6.30;2.70;;;;;;;15.97;42.33;99825.84;9077210;21;20242;-85
2024/04/10 07:34:31;;;;;;;7.27;2.40;;;;;;;15.08;44.02;99836.63;9077330;21;20224;-85
2024/04/10 07:37:54;;;;;;;6.53;2.53;;;;;;;14.84;44.31;99840.81;9076672;21;20767;-86
2024/04/10 07:41:18;;;;;;;9.40;2.77;;;;;;;15.30;44.08;99832.66;9076678;21;20241;-86
2024/04/10 07:44:39;;;;;;;8.80;2.70;;;;;;;15.09;44.14;99860.03;9076661;21;20225;-85
2024/04/10 07:48:02;;;;;;;8.83;2.60;;;;;;;15.75;43.58;99867.13;9076117;21;20216;-85
2024/04/10 07:51:27;;;;;;;7.83;2.63;;;;;;;14.67;44.39;99866.66;9076940;21;20286;-85
2024/04/10 07:54:53;;;;;;;8.63;2.70;;;;;;;15.06;44.63;99865.88;9084665;21;20307;-85
2024/04/10 07:58:13;;;;;;;10.57;2.87;;;;;;;15.25;43.79;99884.06;9109225;21;20231;-85
2024/04/10 08:01:36;;;;;;;7.20;2.43;;;;;;;14.97;43.91;99881.53;9087606;21;20274;-86
2024/04/10 08:04:57;;;;;;;12.60;3.40;;;;;;;15.09;44.00;99869.03;9076029;21;20220;-86
2024/04/10 08:08:20;;;;;;;9.77;2.87;;;;;;;15.00;44.01;99883.00;9075825;21;20262;-85
2024/04/10 08:11:46;;;;;;;7.23;2.93;;;;;;;15.37;44.01;99898.72;9075304;21;20241;-85
2024/04/10 08:15:11;;;;;;;9.83;3.13;;;;;;;15.50;42.92;99896.84;9076841;21;20224;-86
2024/04/10 08:18:36;;;;;;;7.00;2.47;;;;;;;15.43;43.18;99898.75;9076444;21;20222;-86
2024/04/10 08:21:57;;;;;;;13.40;3.10;;;;;;;15.60;43.58;99904.59;9075790;21;20262;-85
2024/04/10 08:25:21;;;;;;;12.73;2.73;;;;;;;15.64;43.07;99906.66;9075534;21;21074;-86
2024/04/10 08:28:52;;;;;;;12.93;3.27;;;;;;;15.94;42.72;99909.75;9074460;21;20237;-85
2024/04/10 08:32:12;;;;;;;12.13;3.03;;;;;;;15.71;42.69;99912.94;9076336;21;20328;-86
2024/04/10 08:35:36;;;;;;;10.50;2.80;;;;;;;15.82;42.49;99911.47;9076047;21;20265;-85
2024/04/10 08:39:00;;;;;;;7.10;2.57;;;;;;;16.30;41.45;99901.91;9076091;21;20697;-83
2024/04/10 08:42:20;;;;;;;10.80;2.53;;;;;;;16.26;41.82;99904.22;9075937;21;20221;-83
2024/04/10 08:45:46;;;;;;;11.43;2.73;;;;;;;15.71;42.53;99921.09;9077599;21;20217;-83
2024/04/10 08:49:09;;;;;;;11.60;3.30;;;;;;;15.86;42.17;99910.81;9076337;21;20241;-82
2024/04/10 08:52:33;;;;;;;9.37;2.87;;;;;;;15.86;42.59;99923.59;9076690;21;20260;-83
2024/04/10 08:55:56;;;;;;;6.53;2.67;;;;;;;15.66;42.72;99922.75;9076631;21;20248;-82
2024/04/10 08:59:19;;;;;;;7.63;3.17;;;;;;;15.79;42.29;99934.47;9074757;21;20272;-80
2024/04/10 09:02:43;;;;;;;12.77;3.40;;;;;;;15.79;42.36;99937.19;9078230;21;20532;-83
2024/04/10 09:06:07;;;;;;;7.87;3.00;;;;;;;16.41;40.76;99937.50;9075855;21;20673;-82
2024/04/10 09:09:31;;;;;;;8.53;3.23;;;;;;;15.99;42.02;99938.00;9075657;21;20234;-85
2024/04/10 09:13:01;;;;;;;6.10;2.60;;;;;;;16.76;40.89;99936.06;9076685;21;20230;-82
2024/04/10 09:16:24;;;;;;;9.70;3.07;;;;;;;16.66;41.13;99943.91;9074786;21;20389;-83
2024/04/10 09:19:47;;;;;;;8.17;3.03;;;;;;;17.54;39.17;99956.56;9072062;21;20284;-82
2024/04/10 09:23:10;;;;;;;9.07;2.73;;;;;;;17.60;37.51;99950.22;9075371;21;20226;-82
2024/04/10 09:26:34;;;;;;;7.67;2.87;;;;;;;17.16;38.25;99951.16;9076667;21;20225;-82
2024/04/10 09:29:58;;;;;;;10.33;3.17;;;;;;;18.07;37.10;99955.91;9073817;21;20272;-81
2024/04/10 09:33:21;;;;;;;7.33;3.10;;;;;;;19.09;35.76;99943.09;9074289;21;20229;-78
2024/04/10 09:36:45;;;;;;;6.97;2.57;;;;;;;19.87;34.40;99946.53;9071561;21;20232;-80
2024/04/10 09:40:09;;;;;;;5.83;2.80;;;;;;;19.54;33.65;99971.69;9073892;21;20687;-80
2024/04/10 09:43:31;;;;;;;11.53;3.17;;;;;;;18.85;34.70;99960.47;9074558;21;20268;-79
2024/04/10 09:46:59;;;;;;;3.97;2.40;;;;;;;18.31;34.85;99962.34;9073164;21;20220;-83
2024/04/10 09:50:23;;;;;;;9.33;2.70;;;;;;;17.68;36.69;99986.25;9075315;21;20283;-82
2024/04/10 09:53:50;;;;;;;5.40;2.57;;;;;;;16.68;37.61;99993.53;9072413;21;20233;-84
2024/04/10 09:57:11;;;;;;;8.40;3.30;;;;;;;16.30;38.30;99978.97;9074657;21;20230;-81
2024/04/10 10:00:36;;;;;;;3.43;2.60;;;;;;;18.38;33.69;99969.44;9075234;21;20316;-81
2024/04/10 10:03:57;;;;;;;6.10;2.90;;;;;;;17.16;36.39;99991.22;9076129;21;20220;-81
2024/04/10 10:07:23;;;;;;;13.20;3.87;;;;;;;15.65;38.04;99994.50;9074415;21;20315;-85
2024/04/10 10:10:49;;;;;;;7.50;2.63;;;;;;;17.94;35.04;99990.66;9075794;21;20238;-82
2024/04/10 10:14:14;;;;;;;7.60;2.97;;;;;;;18.52;33.18;99987.34;9073280;21;20718;-82
2024/04/10 10:17:37;;;;;;;8.77;2.80;;;;;;;20.12;31.54;99972.63;9074472;21;20318;-81
2024/04/10 10:21:05;;;;;;;6.17;3.07;;;;;;;19.25;32.38;99968.97;9076348;21;20706;-82
2024/04/10 10:24:29;;;;;;;6.40;2.50;;;;;;;17.90;34.90;99979.34;9076537;21;20572;-82
2024/04/10 10:28:02;;;;;;;6.53;3.17;;;;;;;18.29;34.32;99983.59;9075695;21;20272;-83
2024/04/10 10:31:25;;;;;;;6.80;2.80;;;;;;;18.57;33.25;99983.94;9075192;21;20246;-81
2024/04/10 10:34:49;;;;;;;7.30;2.77;;;;;;;18.01;32.97;99978.63;9077680;21;20226;-81
2024/04/10 10:38:12;;;;;;;8.03;2.43;;;;;;;17.60;33.98;99981.09;9076491;21;21063;-82
2024/04/10 10:41:35;;;;;;;7.73;2.40;;;;;;;17.61;32.76;99968.25;9078080;21;20233;-82
2024/04/10 10:45:05;;;;;;;4.07;2.30;;;;;;;18.97;30.26;99955.88;9076497;21;20222;-82
2024/04/10 10:48:28;;;;;;;5.23;1.80;;;;;;;17.91;31.19;99961.91;9074055;21;20218;-83
2024/04/10 10:51:49;;;;;;;7.83;2.40;;;;;;;19.74;28.48;99942.09;9077696;21;20221;-83
2024/04/10 10:55:16;;;;;;;6.37;1.93;;;;;;;19.92;29.05;99939.25;9076348;21;20280;-83
2024/04/10 10:58:39;;;;;;;4.10;2.20;;;;;;;19.90;28.62;99938.66;9076403;21;20785;-83
2024/04/10 11:02:13;;;;;;;6.57;2.50;;;;;;;18.82;30.84;99951.91;9077108;21;20244;-81
2024/04/10 11:05:36;;;;;;;7.33;2.20;;;;;;;18.79;31.42;99942.25;9077204;21;20231;-82
2024/04/10 11:09:09;;;;;;;6.20;2.53;;;;;;;18.64;32.00;99941.81;9076848;21;20244;-80
2024/04/10 11:12:32;;;;;;;6.30;2.47;;;;;;;19.15;31.48;99938.59;9078134;21;20233;-81
2024/04/10 11:15:57;;;;;;;7.97;2.63;;;;;;;19.41;30.70;99928.09;9077083;21;20271;-82
2024/04/10 11:19:22;;;;;;;5.70;2.13;;;;;;;19.33;31.01;99933.13;9076783;21;20244;-83
2024/04/10 11:22:46;;;;;;;5.70;2.67;;;;;;;20.50;30.61;99931.00;9076253;21;20304;-82
2024/04/10 11:26:06;;;;;;;4.90;2.30;;;;;;;20.98;29.19;99932.31;9080391;21;20229;-82
2024/04/10 11:29:29;;;;;;;4.53;2.20;;;;;;;19.13;30.54;99941.56;9078361;21;20225;-82
2024/04/10 11:32:53;;;;;;;6.13;2.50;;;;;;;19.90;30.16;99938.66;9074918;21;20271;-81
2024/04/10 11:36:19;;;;;;;4.27;2.03;;;;;;;20.75;27.26;99929.63;9072578;21;20245;-81
2024/04/10 11:39:42;;;;;;;5.73;2.20;;;;;;;20.33;27.92;99924.63;9074209;21;20235;-81
2024/04/10 11:43:03;;;;;;;5.83;2.03;;;;;;;21.17;27.03;99937.34;9080784;21;20336;-82
2024/04/10 11:46:27;;;;;;;4.47;2.10;;;;;;;21.37;25.83;99918.50;9082803;21;20236;-82
2024/04/10 11:49:50;;;;;;;5.77;2.50;;;;;;;19.56;28.57;99923.03;9082658;21;20263;-81
2024/04/10 11:53:15;;;;;;;7.00;2.63;;;;;;;20.22;27.71;99929.03;9080841;21;20276;-82
2024/04/10 11:56:36;;;;;;;4.67;1.90;;;;;;;20.49;26.50;99919.22;9082668;21;20342;-80
2024/04/10 11:59:59;;;;;;;6.87;2.10;;;;;;;20.48;26.19;99922.19;9082473;21;20304;-82
2024/04/10 12:03:22;;;;;;;6.50;2.33;;;;;;;21.57;24.56;99931.75;9083059;21;20229;-82
2024/04/10 12:06:43;;;;;;;3.80;2.00;;;;;;;21.87;24.11;99926.78;9082789;21;20261;-81
2024/04/10 12:10:10;;;;;;;3.43;1.70;;;;;;;22.30;23.62;99913.19;9082369;21;20711;-84
2024/04/10 12:17:37;;;;;;;4.53;1.90;;;;;;;21.96;24.81;99923.38;9091383;21;20236;-83
2024/04/10 12:20:58;;;;;;;4.07;1.73;;;;;;;22.65;23.49;99927.41;9085418;21;20614;-81
2024/04/10 12:24:21;;;;;;;4.20;2.23;;;;;;;19.97;26.92;99931.16;9084033;21;20740;-80
2024/04/10 12:27:48;;;;;;;6.57;2.97;;;;;;;20.35;27.81;99914.25;9083042;21;20284;-80
2024/04/10 12:31:08;;;;;;;6.93;2.27;;;;;;;21.19;26.47;99909.69;9099957;21;20235;-83
2024/04/10 12:34:32;;;;;;;4.17;2.07;;;;;;;20.05;28.58;99911.63;9084846;21;20257;-83
2024/04/10 12:38:06;;;;;;;3.27;2.03;;;;;;;20.07;28.27;99893.09;9085186;21;20319;-83
2024/04/10 12:41:40;;;;;;;6.20;1.87;;;;;;;20.30;27.81;99904.03;9089247;21;20310;-85
2024/04/10 12:45:07;;;;;;;3.23;1.90;;;;;;;19.44;29.10;99921.34;9092482;21;20332;-84
2024/04/10 12:48:28;;;;;;;5.90;2.30;;;;;;;19.33;29.19;99919.44;9084986;21;20231;-85
2024/04/10 12:51:51;;;;;;;5.60;2.07;;;;;;;18.84;29.73;99916.97;9077167;21;20689;-84
2024/04/10 12:55:12;;;;;;;4.50;2.10;;;;;;;18.02;30.69;99917.53;9078288;21;20727;-83
2024/04/10 12:58:35;;;;;;;3.50;2.17;;;;;;;18.92;29.74;99920.22;9075773;21;20281;-82
2024/04/10 13:02:05;;;;;;;3.27;2.00;;;;;;;19.14;29.73;99912.31;9077249;21;20218;-82
2024/04/10 13:05:29;;;;;;;5.67;2.27;;;;;;;19.39;29.04;99913.84;9076779;21;20542;-82
2024/04/10 13:08:50;;;;;;;5.67;2.30;;;;;;;19.06;29.44;99927.16;9076828;21;20288;-81
2024/04/10 13:12:13;;;;;;;3.93;2.20;;;;;;;18.07;31.20;99905.91;9077303;21;20225;-81
2024/04/10 13:15:34;;;;;;;4.37;2.13;;;;;;;18.83;30.25;99913.41;9076992;21;20266;-82
2024/04/10 13:19:00;;;;;;;5.73;2.30;;;;;;;19.57;28.69;99910.22;9074442;21;20289;-82
2024/04/10 13:22:24;;;;;;;6.27;2.47;;;;;;;19.65;29.58;99910.69;9077246;21;20223;-82
2024/04/10 13:25:45;;;;;;;3.13;2.30;;;;;;;19.62;29.11;99893.88;9076700;21;20682;-82
2024/04/10 13:29:08;;;;;;;6.80;2.30;;;;;;;20.22;28.59;99895.34;9075714;21;20314;-82
2024/04/10 13:32:33;;;;;;;5.63;2.10;;;;;;;19.92;28.16;99883.69;9077416;21;20226;-82
2024/04/10 13:36:08;;;;;;;3.67;1.90;;;;;;;21.20;26.46;99879.25;9078473;21;20253;-82
2024/04/10 13:39:29;;;;;;;5.57;2.13;;;;;;;20.22;26.51;99890.69;9077339;21;20280;-80
2024/04/10 13:42:53;;;;;;;5.23;2.10;;;;;;;21.43;25.83;99894.75;9078081;21;20602;-83
2024/04/10 13:46:13;;;;;;;5.37;2.47;;;;;;;20.27;26.46;99888.06;9077213;21;20226;-82
2024/04/10 13:49:36;;;;;;;4.80;2.17;;;;;;;21.03;25.53;99888.53;9076548;21;20290;-81
2024/04/10 13:53:00;;;;;;;4.73;2.10;;;;;;;20.86;26.53;99895.03;9078939;21;20222;-81
2024/04/10 13:56:23;;;;;;;4.80;2.10;;;;;;;21.17;25.96;99900.03;9077601;21;20229;-82
2024/04/10 13:59:45;;;;;;;5.67;2.00;;;;;;;21.90;25.71;99896.91;9076898;21;20235;-82
2024/04/10 14:03:08;;;;;;;4.60;1.83;;;;;;;21.74;25.40;99888.69;9076334;21;20239;-82
2024/04/10 14:06:31;;;;;;;4.60;2.13;;;;;;;22.18;25.50;99894.03;9077452;21;20231;-82
2024/04/10 14:09:56;;;;;;;6.37;2.00;;;;;;;22.36;23.95;99901.97;9076634;21;20270;-84
2024/04/10 14:13:19;;;;;;;2.33;1.70;;;;;;;22.68;23.99;99893.91;9079048;21;20235;-82
2024/04/10 14:16:42;;;;;;;8.10;2.23;;;;;;;21.33;26.62;99909.13;9071941;21;20271;-82
2024/04/10 14:20:10;;;;;;;4.10;2.03;;;;;;;21.74;25.58;99899.69;9075987;21;20312;-81
2024/04/10 14:23:34;;;;;;;6.00;2.40;;;;;;;21.62;25.96;99908.00;9078722;21;20225;-82
2024/04/10 14:27:00;;;;;;;5.00;2.27;;;;;;;21.93;25.54;99910.16;9076451;21;20231;-81
2024/04/10 14:30:38;;;;;;;3.57;2.00;;;;;;;21.38;25.61;99913.88;9077674;21;20291;-81
2024/04/10 14:34:01;;;;;;;5.67;2.00;;;;;;;20.09;27.20;99918.31;8721372;22;21058;-82
2024/04/10 14:37:24;;;;;;;3.83;1.73;;;;;;;21.13;26.50;99920.81;8722812;22;21034;-82
2024/04/10 14:40:47;;;;;;;2.40;1.80;;;;;;;20.17;27.62;99926.16;8722355;22;20235;-82
2024/04/10 14:47:52;;;;;;;4.27;1.93;;;;;;;20.24;27.78;99926.91;8725009;22;20236;-82
2024/04/10 14:51:13;;;;;;;3.30;1.80;;;;;;;20.23;26.35;99922.47;8718794;22;20301;-81
2024/04/10 14:56:33;;;;;;;2.93;1.90;;;;;;;19.96;27.76;99945.06;7699570;25;20927;-81
2024/04/10 14:59:57;;;;;;;6.60;2.17;;;;;;;19.41;28.20;99927.28;7628608;25;20273;-81
2024/04/10 15:03:18;;;;;;;3.63;1.70;;;;;;;20.87;25.88;99926.84;7598880;25;20227;-82
2024/04/10 15:06:41;;;;;;;3.47;1.83;;;;;;;20.30;26.99;99922.34;7597284;25;20242;-82
2024/04/10 15:10:05;;;;;;;2.20;1.60;;;;;;;19.89;26.71;99939.75;7592056;25;20592;-81
2024/04/10 15:13:29;;;;;;;4.27;2.07;;;;;;;20.37;26.47;99934.00;7592865;26;22025;-82
2024/04/10 15:16:52;;;;;;;7.83;1.87;;;;;;;21.43;25.46;99941.41;7545903;26;20217;-82
2024/04/10 15:20:15;;;;;;;3.13;1.80;;;;;;;21.17;25.40;99952.16;7575389;26;20246;-80
2024/04/10 15:23:38;;;;;;;7.70;2.17;;;;;;;20.92;27.01;99938.78;7583136;26;20265;-82
2024/04/10 15:27:01;;;;;;;4.20;1.80;;;;;;;21.11;26.61;99953.94;7585997;25;20313;-81
2024/04/10 15:30:25;;;;;;;7.50;2.17;;;;;;;20.76;26.04;99944.19;7595201;25;20282;-82
2024/04/10 15:33:48;;;;;;;3.77;1.60;;;;;;;20.24;27.42;99961.66;7598228;25;20236;-81
2024/04/10 15:37:13;;;;;;;4.50;2.00;;;;;;;19.68;26.53;99961.34;7583102;25;20235;-82
2024/04/10 15:40:36;;;;;;;3.17;1.80;;;;;;;20.49;26.97;99964.97;7598305;25;20284;-80
2024/04/10 15:43:59;;;;;;;5.70;1.80;;;;;;;20.67;25.82;99971.13;7582663;25;20738;-81
2024/04/10 15:47:22;;;;;;;3.80;1.70;;;;;;;20.03;27.00;99968.53;7582588;25;20234;-81
2024/04/10 15:50:46;;;;;;;4.80;1.70;;;;;;;20.50;25.73;99967.47;7589180;25;20296;-81
2024/04/10 15:54:09;;;;;;;3.40;1.50;;;;;;;19.89;26.40;99966.25;7598289;25;20237;-81
2024/04/10 15:57:30;;;;;;;4.00;1.87;;;;;;;20.04;26.26;99950.22;7574340;26;20231;-81
2024/04/10 16:01:00;;;;;;;4.57;2.03;;;;;;;19.97;26.98;99960.44;7591293;25;20271;-80
2024/04/10 16:04:26;;;;;;;3.53;1.70;;;;;;;20.62;26.28;99968.28;7587649;26;20267;-82
2024/04/10 16:07:47;;;;;;;2.77;1.80;;;;;;;19.94;27.24;99978.16;7562810;26;20232;-81